Time;durP1;ratioP1;P1;durP2;ratioP2;P2;SDS_P1;SDS_P2;PMS_P1;PMS_P2;Temp;Humidity;BMP_temperature;BMP_pressure;BME280_temperature;BME280_humidity;BME280_pressure;Samples;Min_cycle;Max_cycle;Signal;HPM_P1;HPM_P2
2023/09/12 00:00:23;;;;;;;33.80;28.02;;;;;;;;;;5072862;28;20087;-80
2023/09/12 00:02:49;;;;;;;34.58;27.60;;;;;;;;;;5053209;28;20053;-81
2023/09/12 00:05:16;;;;;;;33.75;27.50;;;;;;;;;;5060804;28;20136;-81
2023/09/12 00:07:42;;;;;;;33.78;28.15;;;;;;;;;;5056010;28;20045;-81
2023/09/12 00:10:09;;;;;;;37.03;27.45;;;;;;;;;;5073437;28;20051;-81
2023/09/12 00:12:35;;;;;;;31.98;27.23;;;;;;;;;;5072335;28;20070;-81
2023/09/12 00:15:04;;;;;;;36.33;27.27;;;;;;;;;;5073387;28;20049;-81
2023/09/12 00:17:30;;;;;;;31.92;27.17;;;;;;;;;;5064736;28;20053;-80
2023/09/12 00:19:56;;;;;;;35.10;27.00;;;;;;;;;;5056511;28;20127;-80
2023/09/12 00:22:22;;;;;;;32.97;26.73;;;;;;;;;;5073708;28;20047;-80
2023/09/12 00:24:48;;;;;;;34.47;27.77;;;;;;;;;;5072718;28;20063;-80
2023/09/12 00:27:15;;;;;;;34.30;27.88;;;;;;;;;;5071921;28;20110;-80
2023/09/12 00:29:41;;;;;;;33.92;27.27;;;;;;;;;;5072996;28;20519;-80
2023/09/12 00:32:07;;;;;;;33.70;26.25;;;;;;;;;;5071991;28;20052;-80
2023/09/12 00:34:33;;;;;;;36.22;27.45;;;;;;;;;;5072172;28;20093;-81
2023/09/12 00:36:59;;;;;;;34.97;27.65;;;;;;;;;;5063112;28;20140;-80
2023/09/12 00:39:25;;;;;;;34.08;27.02;;;;;;;;;;5065626;28;20040;-81
2023/09/12 00:41:51;;;;;;;34.45;27.52;;;;;;;;;;5072472;28;20040;-82
2023/09/12 00:44:17;;;;;;;35.28;27.25;;;;;;;;;;5060797;28;20091;-81
2023/09/12 00:46:45;;;;;;;32.25;26.90;;;;;;;;;;5052159;28;20045;-82
2023/09/12 00:49:11;;;;;;;34.67;28.27;;;;;;;;;;5068520;28;20136;-82
2023/09/12 00:51:38;;;;;;;34.17;28.83;;;;;;;;;;5053099;28;20047;-81
2023/09/12 00:54:04;;;;;;;33.92;27.17;;;;;;;;;;5067798;28;20047;-81
2023/09/12 00:56:30;;;;;;;34.60;27.63;;;;;;;;;;5052885;28;20119;-81
2023/09/12 00:58:57;;;;;;;33.30;27.02;;;;;;;;;;5069993;28;20049;-81
2023/09/12 01:01:23;;;;;;;32.42;28.02;;;;;;;;;;5056578;28;20055;-81
2023/09/12 01:03:49;;;;;;;34.33;28.00;;;;;;;;;;5058461;28;20041;-81
2023/09/12 01:06:15;;;;;;;31.88;26.92;;;;;;;;;;5051056;28;20041;-81
2023/09/12 01:08:41;;;;;;;33.30;27.52;;;;;;;;;;5050781;28;20155;-81
2023/09/12 01:11:08;;;;;;;34.28;28.77;;;;;;;;;;5050681;28;20056;-81
2023/09/12 01:13:34;;;;;;;39.80;29.20;;;;;;;;;;5052566;28;20116;-81
2023/09/12 01:16:00;;;;;;;38.53;29.05;;;;;;;;;;5053663;28;20109;-80
2023/09/12 01:18:26;;;;;;;38.25;29.58;;;;;;;;;;5050976;28;20132;-81
2023/09/12 01:21:11;;;;;;;34.13;29.55;;;;;;;;;;5066768;28;20092;-81
2023/09/12 01:23:48;;;;;;;37.10;29.77;;;;;;;;;;5072631;28;20052;-81
2023/09/12 01:26:29;;;;;;;37.47;29.48;;;;;;;;;;5072296;28;20316;-81
2023/09/12 01:28:55;;;;;;;36.33;30.30;;;;;;;;;;5070694;28;20041;-81
2023/09/12 01:31:23;;;;;;;36.65;29.45;;;;;;;;;;5055245;28;20146;-80
2023/09/12 01:33:49;;;;;;;39.65;31.70;;;;;;;;;;5051720;28;20036;-80
2023/09/12 01:36:15;;;;;;;36.20;30.17;;;;;;;;;;5059804;28;20374;-80
2023/09/12 01:38:41;;;;;;;42.70;31.48;;;;;;;;;;5071966;28;20079;-81
2023/09/12 01:41:07;;;;;;;37.30;30.48;;;;;;;;;;5055778;28;20037;-80
2023/09/12 01:43:35;;;;;;;37.05;31.20;;;;;;;;;;5052228;28;20093;-80
2023/09/12 01:46:02;;;;;;;42.85;31.95;;;;;;;;;;5058331;28;20045;-81
2023/09/12 01:48:33;;;;;;;35.10;30.67;;;;;;;;;;5069304;28;20115;-81
2023/09/12 01:50:59;;;;;;;39.70;31.85;;;;;;;;;;5051492;28;20088;-81
2023/09/12 01:53:26;;;;;;;39.78;31.75;;;;;;;;;;5051544;28;20401;-81
2023/09/12 01:55:52;;;;;;;40.50;32.40;;;;;;;;;;5054737;28;20055;-81
2023/09/12 01:58:18;;;;;;;39.10;32.45;;;;;;;;;;5072181;28;20040;-81
2023/09/12 02:00:44;;;;;;;38.53;30.88;;;;;;;;;;5068238;28;20097;-80
2023/09/12 02:03:10;;;;;;;41.97;32.78;;;;;;;;;;5062775;28;20059;-80
2023/09/12 02:05:38;;;;;;;39.58;34.00;;;;;;;;;;5070423;28;20045;-81
2023/09/12 02:08:05;;;;;;;38.40;32.33;;;;;;;;;;5070968;28;20045;-80
2023/09/12 02:10:31;;;;;;;39.15;32.58;;;;;;;;;;5052706;28;20049;-80
2023/09/12 02:12:57;;;;;;;41.92;34.78;;;;;;;;;;5034178;28;20385;-79
2023/09/12 02:15:24;;;;;;;43.13;34.22;;;;;;;;;;5057279;28;20044;-79
2023/09/12 02:17:50;;;;;;;43.13;33.38;;;;;;;;;;5054335;28;20060;-80
2023/09/12 02:20:16;;;;;;;46.67;35.92;;;;;;;;;;5037991;28;20370;-80
2023/09/12 02:22:42;;;;;;;44.17;34.67;;;;;;;;;;5070828;28;20048;-80
2023/09/12 02:25:09;;;;;;;43.45;35.53;;;;;;;;;;5067460;28;20048;-81
2023/09/12 02:27:36;;;;;;;42.45;34.95;;;;;;;;;;5075216;28;20055;-80
2023/09/12 02:30:02;;;;;;;42.40;35.20;;;;;;;;;;5071740;28;20087;-81
2023/09/12 02:32:29;;;;;;;42.22;34.08;;;;;;;;;;5057378;28;20131;-80
2023/09/12 02:34:57;;;;;;;42.20;34.97;;;;;;;;;;5073231;28;20055;-81
2023/09/12 02:37:23;;;;;;;39.70;35.08;;;;;;;;;;5075113;28;20094;-81
2023/09/12 02:39:49;;;;;;;46.33;35.40;;;;;;;;;;5073125;28;20048;-81
2023/09/12 02:42:15;;;;;;;44.42;35.90;;;;;;;;;;5075497;28;20083;-80
2023/09/12 02:44:41;;;;;;;45.15;35.88;;;;;;;;;;5073224;28;20072;-81
2023/09/12 02:47:07;;;;;;;41.20;34.17;;;;;;;;;;5053862;28;20041;-80
2023/09/12 02:49:33;;;;;;;40.58;34.13;;;;;;;;;;5055505;28;20045;-77
2023/09/12 02:51:59;;;;;;;40.65;32.65;;;;;;;;;;5071278;28;20512;-78
2023/09/12 02:54:25;;;;;;;40.67;33.47;;;;;;;;;;5070193;28;20075;-78
2023/09/12 02:56:51;;;;;;;40.88;34.15;;;;;;;;;;5073254;28;20123;-80
2023/09/12 02:59:19;;;;;;;38.70;33.25;;;;;;;;;;5070600;28;20468;-80
2023/09/12 03:01:45;;;;;;;40.25;33.03;;;;;;;;;;5057860;28;20048;-80
2023/09/12 03:04:11;;;;;;;41.25;32.42;;;;;;;;;;5060236;28;20041;-80
2023/09/12 03:06:37;;;;;;;39.67;32.72;;;;;;;;;;5055155;28;20385;-80
2023/09/12 03:09:03;;;;;;;41.95;32.90;;;;;;;;;;5055490;28;20044;-80
2023/09/12 03:11:29;;;;;;;40.83;33.50;;;;;;;;;;5053715;28;20045;-79
2023/09/12 03:13:55;;;;;;;41.30;32.42;;;;;;;;;;5063793;28;20127;-80
2023/09/12 03:16:23;;;;;;;38.83;32.17;;;;;;;;;;5073901;28;20041;-80
2023/09/12 03:18:50;;;;;;;40.35;32.67;;;;;;;;;;5072052;28;20044;-81
2023/09/12 03:21:16;;;;;;;42.05;32.53;;;;;;;;;;5070705;28;20045;-80
2023/09/12 03:23:42;;;;;;;38.55;32.28;;;;;;;;;;5063593;28;20059;-81
2023/09/12 03:26:08;;;;;;;40.38;33.47;;;;;;;;;;5072900;28;20059;-80
2023/09/12 03:28:34;;;;;;;38.35;31.33;;;;;;;;;;5072562;28;20141;-81
2023/09/12 03:31:07;;;;;;;42.40;30.67;;;;;;;;;;5058057;28;20055;-81
2023/09/12 03:33:33;;;;;;;37.00;30.58;;;;;;;;;;5060166;28;20059;-80
2023/09/12 03:35:59;;;;;;;39.47;30.85;;;;;;;;;;5071516;28;20127;-81
2023/09/12 03:38:25;;;;;;;37.55;29.90;;;;;;;;;;5072227;28;20523;-80
2023/09/12 03:40:51;;;;;;;38.70;29.73;;;;;;;;;;5074294;28;20033;-81
2023/09/12 03:43:17;;;;;;;35.85;29.75;;;;;;;;;;5068734;28;20080;-81
2023/09/12 03:45:43;;;;;;;34.58;28.30;;;;;;;;;;5051565;28;20399;-81
2023/09/12 03:48:09;;;;;;;38.03;30.00;;;;;;;;;;5058929;28;20392;-80
2023/09/12 03:50:36;;;;;;;40.85;29.90;;;;;;;;;;5066113;28;20049;-80
2023/09/12 03:53:02;;;;;;;37.40;30.98;;;;;;;;;;5055455;28;20060;-81
2023/09/12 03:55:28;;;;;;;37.35;30.05;;;;;;;;;;5070744;28;20115;-80
2023/09/12 03:57:54;;;;;;;39.55;31.27;;;;;;;;;;5072897;28;20036;-81
2023/09/12 04:00:20;;;;;;;40.53;30.92;;;;;;;;;;5059648;28;20148;-82
2023/09/12 04:02:46;;;;;;;41.00;30.30;;;;;;;;;;5073851;28;20044;-81
2023/09/12 04:05:12;;;;;;;38.58;30.92;;;;;;;;;;5064252;28;20045;-81
2023/09/12 04:07:39;;;;;;;40.70;31.98;;;;;;;;;;5053377;28;20394;-81
2023/09/12 04:10:05;;;;;;;40.13;31.58;;;;;;;;;;5052196;28;20045;-81
2023/09/12 04:12:31;;;;;;;46.42;34.17;;;;;;;;;;5053976;28;20044;-81
2023/09/12 04:14:57;;;;;;;42.33;34.33;;;;;;;;;;5053229;28;20116;-81
2023/09/12 04:17:23;;;;;;;43.72;34.08;;;;;;;;;;5053351;28;20055;-81
2023/09/12 04:19:49;;;;;;;46.63;34.88;;;;;;;;;;5053014;28;20191;-81
2023/09/12 04:22:15;;;;;;;44.63;33.55;;;;;;;;;;5053252;28;20055;-80
2023/09/12 04:24:41;;;;;;;44.92;34.13;;;;;;;;;;5051533;28;20060;-81
2023/09/12 04:27:08;;;;;;;46.80;34.72;;;;;;;;;;5051825;28;20051;-81
2023/09/12 04:29:37;;;;;;;46.63;35.15;;;;;;;;;;5051013;28;20041;-78
2023/09/12 04:32:06;;;;;;;42.88;35.10;;;;;;;;;;5052582;28;20120;-78
2023/09/12 04:34:32;;;;;;;43.15;35.38;;;;;;;;;;5050985;28;20076;-78
2023/09/12 04:36:58;;;;;;;47.08;34.55;;;;;;;;;;5052667;28;20045;-78
2023/09/12 04:39:24;;;;;;;45.10;33.10;;;;;;;;;;5051108;28;20052;-78
2023/09/12 04:41:50;;;;;;;44.85;34.85;;;;;;;;;;5034224;28;20049;-78
2023/09/12 04:44:16;;;;;;;44.22;34.92;;;;;;;;;;5051399;28;20048;-77
2023/09/12 04:46:42;;;;;;;43.08;35.17;;;;;;;;;;5050497;28;20045;-77
2023/09/12 04:49:08;;;;;;;47.60;36.33;;;;;;;;;;5056082;28;20040;-78
2023/09/12 04:51:34;;;;;;;44.55;34.60;;;;;;;;;;5066436;28;20114;-77
2023/09/12 04:54:00;;;;;;;50.58;37.45;;;;;;;;;;5062493;28;20045;-77
2023/09/12 04:56:27;;;;;;;49.80;37.38;;;;;;;;;;5066675;28;20044;-77
2023/09/12 04:58:53;;;;;;;46.05;36.88;;;;;;;;;;5066829;28;20044;-77
2023/09/12 05:01:19;;;;;;;47.92;35.33;;;;;;;;;;5052373;28;20124;-77
2023/09/12 05:03:45;;;;;;;47.55;35.10;;;;;;;;;;5052002;28;20053;-77
2023/09/12 05:06:13;;;;;;;45.33;35.03;;;;;;;;;;5052281;28;20071;-78
2023/09/12 05:08:39;;;;;;;45.55;35.65;;;;;;;;;;5051639;28;20056;-77
2023/09/12 05:11:05;;;;;;;49.20;36.25;;;;;;;;;;5052605;28;20045;-77
2023/09/12 05:13:31;;;;;;;48.67;36.95;;;;;;;;;;5058274;28;20488;-77
2023/09/12 05:15:57;;;;;;;48.25;37.35;;;;;;;;;;5051759;28;20080;-77
2023/09/12 05:18:24;;;;;;;42.97;34.05;;;;;;;;;;5052298;28;20048;-77
2023/09/12 05:20:50;;;;;;;42.95;34.50;;;;;;;;;;5051212;28;20044;-77
2023/09/12 05:23:16;;;;;;;43.75;34.50;;;;;;;;;;5060695;28;20397;-77
2023/09/12 05:25:42;;;;;;;44.90;34.00;;;;;;;;;;5054342;28;20084;-77
2023/09/12 05:28:08;;;;;;;42.65;33.35;;;;;;;;;;5072245;28;20086;-76
2023/09/12 05:30:34;;;;;;;41.28;32.75;;;;;;;;;;5072185;28;20083;-77
2023/09/12 05:33:01;;;;;;;43.95;34.15;;;;;;;;;;5072048;28;20089;-77
2023/09/12 05:35:27;;;;;;;40.97;32.63;;;;;;;;;;5071782;28;20087;-77
2023/09/12 05:37:53;;;;;;;44.22;33.50;;;;;;;;;;5072123;28;20043;-77
2023/09/12 05:40:19;;;;;;;41.72;31.88;;;;;;;;;;5070549;28;20044;-76
2023/09/12 05:42:45;;;;;;;59.92;36.45;;;;;;;;;;5072056;28;20056;-76
2023/09/12 05:45:11;;;;;;;53.08;35.92;;;;;;;;;;5071820;28;20378;-76
2023/09/12 05:47:37;;;;;;;106.82;38.15;;;;;;;;;;5070592;28;20041;-76
2023/09/12 05:50:07;;;;;;;175.98;38.88;;;;;;;;;;5071818;28;20054;-76
2023/09/12 05:52:33;;;;;;;133.73;36.78;;;;;;;;;;5071966;28;20102;-77
2023/09/12 05:54:59;;;;;;;182.95;41.05;;;;;;;;;;5074891;28;20041;-76
2023/09/12 05:57:25;;;;;;;190.55;41.10;;;;;;;;;;5076044;28;20048;-77
2023/09/12 05:59:51;;;;;;;196.63;41.40;;;;;;;;;;5075499;28;20094;-77
2023/09/12 06:02:17;;;;;;;223.45;42.05;;;;;;;;;;5075149;28;20119;-76
2023/09/12 06:04:43;;;;;;;121.45;39.78;;;;;;;;;;5075193;28;20041;-77
2023/09/12 06:07:10;;;;;;;212.77;43.13;;;;;;;;;;5075496;28;20120;-76
2023/09/12 06:09:36;;;;;;;90.97;38.05;;;;;;;;;;5073654;28;20127;-77
2023/09/12 06:12:03;;;;;;;142.15;46.63;;;;;;;;;;5075022;28;20045;-77
2023/09/12 06:14:29;;;;;;;164.57;44.25;;;;;;;;;;5072602;28;20393;-77
2023/09/12 06:16:55;;;;;;;125.97;45.47;;;;;;;;;;5074533;28;20072;-77
2023/09/12 06:19:21;;;;;;;164.77;46.13;;;;;;;;;;5062321;28;20080;-76
2023/09/12 06:21:47;;;;;;;108.45;44.55;;;;;;;;;;5056120;28;20068;-76
2023/09/12 06:24:14;;;;;;;128.60;47.50;;;;;;;;;;5067504;28;20052;-76
2023/09/12 06:26:41;;;;;;;100.18;47.63;;;;;;;;;;5067687;28;20499;-77
2023/09/12 06:29:07;;;;;;;137.80;48.95;;;;;;;;;;5074829;28;20059;-77
2023/09/12 06:31:33;;;;;;;92.60;45.78;;;;;;;;;;5055363;28;20045;-77
2023/09/12 06:33:59;;;;;;;130.13;48.33;;;;;;;;;;5054910;28;20512;-77
2023/09/12 06:36:26;;;;;;;204.05;51.28;;;;;;;;;;5054705;28;20425;-78
2023/09/12 06:38:53;;;;;;;100.85;45.45;;;;;;;;;;5055490;28;20049;-77
2023/09/12 06:41:20;;;;;;;98.03;45.22;;;;;;;;;;5055492;28;20041;-78
2023/09/12 06:43:46;;;;;;;123.60;48.55;;;;;;;;;;5070798;28;20531;-76
2023/09/12 06:46:12;;;;;;;95.35;45.05;;;;;;;;;;5053592;28;20095;-77
2023/09/12 06:48:38;;;;;;;89.53;44.38;;;;;;;;;;5060814;28;20055;-77
2023/09/12 06:51:09;;;;;;;106.75;47.03;;;;;;;;;;5074466;28;20370;-77
2023/09/12 06:53:38;;;;;;;90.43;45.40;;;;;;;;;;5074469;28;20032;-77
2023/09/12 06:56:07;;;;;;;86.35;44.60;;;;;;;;;;5074324;28;20392;-76
2023/09/12 06:58:34;;;;;;;78.20;42.58;;;;;;;;;;5074423;28;20052;-77
2023/09/12 07:01:03;;;;;;;81.05;44.10;;;;;;;;;;5074435;28;20095;-77
2023/09/12 07:03:30;;;;;;;80.40;44.03;;;;;;;;;;5071673;28;20037;-76
2023/09/12 07:05:56;;;;;;;73.72;42.75;;;;;;;;;;5061352;28;20055;-76
2023/09/12 07:08:22;;;;;;;71.20;42.78;;;;;;;;;;5036392;28;20176;-77
2023/09/12 07:10:48;;;;;;;68.80;41.63;;;;;;;;;;5072467;28;20041;-77
2023/09/12 07:13:14;;;;;;;70.45;41.17;;;;;;;;;;5074534;28;20052;-76
2023/09/12 07:15:40;;;;;;;70.10;41.15;;;;;;;;;;5061086;28;20121;-76
2023/09/12 07:18:06;;;;;;;65.15;40.08;;;;;;;;;;5049023;28;20048;-77
2023/09/12 07:23:57;;;;;;;71.22;41.75;;;;;;;;;;5009204;28;20514;-77
2023/09/12 07:26:26;;;;;;;70.10;42.95;;;;;;;;;;5029080;28;20049;-77
2023/09/12 07:28:52;;;;;;;67.75;41.17;;;;;;;;;;5011301;28;20304;-78
2023/09/12 07:31:18;;;;;;;67.28;42.53;;;;;;;;;;5028613;28;20048;-77
2023/09/12 07:33:44;;;;;;;66.45;41.15;;;;;;;;;;5010817;28;20053;-77
2023/09/12 07:36:11;;;;;;;65.45;42.15;;;;;;;;;;5028158;28;20050;-78
2023/09/12 07:38:38;;;;;;;63.25;40.53;;;;;;;;;;5027165;28;20117;-77
2023/09/12 07:41:04;;;;;;;66.97;42.28;;;;;;;;;;5010902;28;20080;-78
2023/09/12 07:43:30;;;;;;;63.83;39.88;;;;;;;;;;5007200;28;20129;-77
2023/09/12 07:45:57;;;;;;;64.80;41.55;;;;;;;;;;5028440;28;20103;-79
2023/09/12 07:48:23;;;;;;;62.28;41.67;;;;;;;;;;5011076;28;20135;-77
2023/09/12 07:50:49;;;;;;;60.92;40.60;;;;;;;;;;5026509;28;20067;-76
2023/09/12 07:53:15;;;;;;;65.45;43.80;;;;;;;;;;5008787;28;20046;-77
2023/09/12 07:55:47;;;;;;;63.60;42.05;;;;;;;;;;5021248;28;20065;-77
2023/09/12 07:58:14;;;;;;;65.50;42.30;;;;;;;;;;5025309;28;20375;-76
2023/09/12 08:00:40;;;;;;;68.93;43.47;;;;;;;;;;5028856;28;20393;-76
2023/09/12 08:03:06;;;;;;;67.05;44.22;;;;;;;;;;5029195;28;20037;-76
2023/09/12 08:05:32;;;;;;;61.22;42.10;;;;;;;;;;5033168;28;20101;-77
2023/09/12 08:07:58;;;;;;;62.70;41.75;;;;;;;;;;5032853;28;20049;-77
2023/09/12 08:10:24;;;;;;;60.63;42.60;;;;;;;;;;5029192;28;20038;-77
2023/09/12 08:12:50;;;;;;;60.80;42.30;;;;;;;;;;5028209;28;20102;-76
2023/09/12 08:15:16;;;;;;;61.40;41.22;;;;;;;;;;5027686;28;20065;-76
2023/09/12 08:17:42;;;;;;;64.72;40.88;;;;;;;;;;5027792;28;20053;-76
2023/09/12 08:20:12;;;;;;;63.88;41.25;;;;;;;;;;5008693;28;20172;-83
2023/09/12 08:22:38;;;;;;;68.72;41.58;;;;;;;;;;5030258;28;20081;-83
2023/09/12 08:25:05;;;;;;;62.38;40.67;;;;;;;;;;5029874;28;20093;-83
2023/09/12 08:27:31;;;;;;;62.50;39.70;;;;;;;;;;4994466;28;20049;-82
2023/09/12 08:29:57;;;;;;;60.75;39.42;;;;;;;;;;5030126;28;20398;-83
2023/09/12 08:32:23;;;;;;;63.13;40.30;;;;;;;;;;5029993;28;20583;-83
2023/09/12 08:34:49;;;;;;;60.95;39.67;;;;;;;;;;5010802;28;20132;-83
2023/09/12 08:37:15;;;;;;;60.08;39.65;;;;;;;;;;5029170;28;20507;-84
2023/09/12 08:39:45;;;;;;;58.83;39.10;;;;;;;;;;5027999;28;20497;-84
2023/09/12 08:42:15;;;;;;;61.92;39.08;;;;;;;;;;5029381;28;20455;-83
2023/09/12 08:44:44;;;;;;;57.45;38.83;;;;;;;;;;5012068;28;20073;-83
2023/09/12 08:47:11;;;;;;;58.22;38.22;;;;;;;;;;5012380;28;20396;-83
2023/09/12 08:49:37;;;;;;;52.33;35.63;;;;;;;;;;5016270;28;20543;-84
2023/09/12 08:52:04;;;;;;;51.65;35.05;;;;;;;;;;4995566;28;20057;-83
2023/09/12 08:54:31;;;;;;;49.28;32.85;;;;;;;;;;4994239;28;20136;-84
2023/09/12 08:56:57;;;;;;;50.20;34.53;;;;;;;;;;5030358;28;20327;-83
2023/09/12 08:59:24;;;;;;;47.25;33.15;;;;;;;;;;5030583;28;20049;-83
2023/09/12 09:01:52;;;;;;;45.88;32.03;;;;;;;;;;5029234;28;20053;-82
2023/09/12 09:04:19;;;;;;;47.33;32.15;;;;;;;;;;5027476;28;20525;-83
2023/09/12 09:06:46;;;;;;;51.15;33.70;;;;;;;;;;5026472;28;20121;-76
2023/09/12 09:09:12;;;;;;;46.10;31.98;;;;;;;;;;5026743;28;20129;-77
2023/09/12 09:11:39;;;;;;;50.42;33.13;;;;;;;;;;5027357;28;20046;-76
2023/09/12 09:14:05;;;;;;;45.88;31.70;;;;;;;;;;5027302;28;20059;-76
2023/09/12 09:16:31;;;;;;;50.65;34.85;;;;;;;;;;5026727;28;20107;-76
2023/09/12 09:18:58;;;;;;;45.25;33.00;;;;;;;;;;5029064;28;20084;-77
2023/09/12 09:21:31;;;;;;;50.08;33.65;;;;;;;;;;5033090;28;20151;-77
2023/09/12 09:24:18;;;;;;;47.90;34.45;;;;;;;;;;5022956;28;20085;-77
2023/09/12 09:26:44;;;;;;;52.45;33.85;;;;;;;;;;5026514;28;20045;-76
2023/09/12 09:29:15;;;;;;;47.47;33.97;;;;;;;;;;5029626;28;20384;-76
2023/09/12 09:31:42;;;;;;;47.63;34.17;;;;;;;;;;5015224;28;20334;-76
2023/09/12 09:34:12;;;;;;;51.60;35.28;;;;;;;;;;5031375;28;20091;-76
2023/09/12 09:36:42;;;;;;;46.58;33.42;;;;;;;;;;5029330;28;20049;-77
2023/09/12 09:39:08;;;;;;;44.15;32.78;;;;;;;;;;5030674;28;20416;-76
2023/09/12 09:41:34;;;;;;;50.13;34.92;;;;;;;;;;5012231;28;20556;-76
2023/09/12 09:44:00;;;;;;;47.30;33.83;;;;;;;;;;5030960;28;20121;-77
2023/09/12 09:46:27;;;;;;;47.40;31.92;;;;;;;;;;5031551;28;20115;-76
2023/09/12 09:48:53;;;;;;;47.78;32.45;;;;;;;;;;5012974;28;20405;-76
2023/09/12 09:51:19;;;;;;;51.63;34.45;;;;;;;;;;5029937;28;20052;-76
2023/09/12 09:53:47;;;;;;;48.50;33.17;;;;;;;;;;5029691;28;20045;-78
2023/09/12 09:56:16;;;;;;;47.30;33.67;;;;;;;;;;5022297;28;20441;-78
2023/09/12 09:58:49;;;;;;;50.78;33.80;;;;;;;;;;5023627;28;20049;-78
2023/09/12 10:01:19;;;;;;;49.25;35.20;;;;;;;;;;5031032;28;20060;-78
2023/09/12 10:03:47;;;;;;;49.75;35.97;;;;;;;;;;5031165;28;20362;-78
2023/09/12 10:06:15;;;;;;;49.13;34.67;;;;;;;;;;5032414;28;20470;-78
2023/09/12 10:08:43;;;;;;;50.20;34.75;;;;;;;;;;5046026;28;20163;-79
2023/09/12 10:11:10;;;;;;;55.38;34.30;;;;;;;;;;5030385;28;20045;-78
2023/09/12 10:13:36;;;;;;;47.10;33.90;;;;;;;;;;5030100;28;20511;-76
2023/09/12 10:16:04;;;;;;;51.00;32.63;;;;;;;;;;4982044;28;20046;-77
2023/09/12 10:18:32;;;;;;;44.17;32.83;;;;;;;;;;5016915;28;20497;-76
2023/09/12 10:21:16;;;;;;;53.72;33.42;;;;;;;;;;5030354;28;20148;-78
2023/09/12 10:23:44;;;;;;;48.35;33.80;;;;;;;;;;5011957;28;20174;-78
2023/09/12 10:26:14;;;;;;;60.47;33.08;;;;;;;;;;5027690;28;20052;-79
2023/09/12 10:28:44;;;;;;;43.00;31.45;;;;;;;;;;5014278;28;20049;-78
2023/09/12 10:31:12;;;;;;;43.85;30.15;;;;;;;;;;5012278;28;20041;-79
2023/09/12 10:33:38;;;;;;;38.95;27.95;;;;;;;;;;5026327;28;20052;-78
2023/09/12 10:36:05;;;;;;;42.50;31.20;;;;;;;;;;5026756;28;20080;-78
2023/09/12 10:38:33;;;;;;;45.30;30.42;;;;;;;;;;5027715;28;20447;-78
2023/09/12 10:41:01;;;;;;;41.30;29.63;;;;;;;;;;5027036;28;20049;-78
2023/09/12 10:43:28;;;;;;;41.25;29.52;;;;;;;;;;5009258;28;20037;-79
2023/09/12 10:45:55;;;;;;;39.53;29.20;;;;;;;;;;5008790;28;20397;-79
2023/09/12 10:48:21;;;;;;;41.63;28.98;;;;;;;;;;5025963;28;20047;-78
2023/09/12 10:50:47;;;;;;;39.13;28.10;;;;;;;;;;5025021;28;20133;-77
2023/09/12 10:53:15;;;;;;;39.15;28.85;;;;;;;;;;5023752;28;20103;-80
2023/09/12 10:55:58;;;;;;;39.72;28.77;;;;;;;;;;5019983;28;20085;-78
2023/09/12 10:58:24;;;;;;;40.63;27.85;;;;;;;;;;4993379;28;20046;-79
2023/09/12 11:01:12;;;;;;;36.35;27.30;;;;;;;;;;5027833;28;20378;-79
2023/09/12 11:03:39;;;;;;;40.83;28.83;;;;;;;;;;5011045;28;20049;-77
2023/09/12 11:06:20;;;;;;;38.60;27.10;;;;;;;;;;5029544;28;20129;-78
2023/09/12 11:09:06;;;;;;;36.40;26.20;;;;;;;;;;5028381;28;20545;-78
2023/09/12 11:11:32;;;;;;;40.83;28.67;;;;;;;;;;5028203;28;20107;-78
2023/09/12 11:14:05;;;;;;;37.13;27.83;;;;;;;;;;5010970;28;20037;-78
2023/09/12 11:16:31;;;;;;;38.20;27.65;;;;;;;;;;5011480;28;20341;-79
2023/09/12 11:19:16;;;;;;;40.20;27.45;;;;;;;;;;5038585;28;20108;-81
2023/09/12 11:21:46;;;;;;;38.45;28.55;;;;;;;;;;5000214;28;20042;-81
2023/09/12 11:24:13;;;;;;;39.42;28.58;;;;;;;;;;5028067;28;20148;-82
2023/09/12 11:26:54;;;;;;;35.13;24.83;;;;;;;;;;5028608;28;20446;-82
2023/09/12 11:29:20;;;;;;;37.53;25.58;;;;;;;;;;5026821;28;20136;-80
2023/09/12 11:31:57;;;;;;;39.47;26.80;;;;;;;;;;5026906;28;20107;-81
2023/09/12 11:34:23;;;;;;;51.33;24.88;;;;;;;;;;5028801;28;20112;-80
2023/09/12 11:36:49;;;;;;;32.15;22.67;;;;;;;;;;5028150;28;20268;-81
2023/09/12 11:39:23;;;;;;;51.75;23.85;;;;;;;;;;5028160;28;20046;-82
2023/09/12 11:41:49;;;;;;;36.13;23.52;;;;;;;;;;5027821;28;20132;-82
2023/09/12 11:44:16;;;;;;;40.78;24.85;;;;;;;;;;5029051;28;20069;-82
2023/09/12 11:46:43;;;;;;;36.00;25.00;;;;;;;;;;5030340;28;20398;-82
2023/09/12 11:49:09;;;;;;;35.80;24.38;;;;;;;;;;5029223;28;20112;-83
2023/09/12 11:51:35;;;;;;;36.30;25.40;;;;;;;;;;5026726;28;20049;-82
2023/09/12 11:54:04;;;;;;;37.45;24.80;;;;;;;;;;5025983;28;20052;-83
2023/09/12 11:56:30;;;;;;;30.98;23.00;;;;;;;;;;4979677;28;20045;-81
2023/09/12 11:58:57;;;;;;;34.33;22.92;;;;;;;;;;5008218;28;20486;-82
2023/09/12 12:01:23;;;;;;;38.58;25.17;;;;;;;;;;5007965;28;20042;-80
2023/09/12 12:03:52;;;;;;;33.53;23.58;;;;;;;;;;4991328;28;20126;-82
2023/09/12 12:06:19;;;;;;;37.40;22.17;;;;;;;;;;4992184;28;20049;-80
2023/09/12 12:08:46;;;;;;;29.35;21.13;;;;;;;;;;4991625;28;20046;-81
2023/09/12 12:11:12;;;;;;;30.63;22.17;;;;;;;;;;4990383;28;20486;-82
2023/09/12 12:13:38;;;;;;;31.25;21.48;;;;;;;;;;5017724;28;20053;-81
2023/09/12 12:16:17;;;;;;;29.35;21.77;;;;;;;;;;5011225;28;20103;-80
2023/09/12 12:18:43;;;;;;;37.70;21.73;;;;;;;;;;5017971;28;20446;-80
2023/09/12 12:21:09;;;;;;;31.08;21.05;;;;;;;;;;5011564;28;20045;-81
2023/09/12 12:23:35;;;;;;;34.42;22.65;;;;;;;;;;4990715;28;20056;-81
2023/09/12 12:26:07;;;;;;;31.90;21.85;;;;;;;;;;5008307;28;20104;-80
2023/09/12 12:28:35;;;;;;;28.88;21.88;;;;;;;;;;4990876;28;20061;-79
2023/09/12 12:31:01;;;;;;;29.70;21.20;;;;;;;;;;4977648;28;20081;-78
2023/09/12 12:33:28;;;;;;;30.40;20.38;;;;;;;;;;5009358;28;20054;-78
2023/09/12 12:36:00;;;;;;;28.88;20.48;;;;;;;;;;5008067;28;20101;-77
2023/09/12 12:38:26;;;;;;;24.63;18.15;;;;;;;;;;5009571;28;20049;-78
2023/09/12 12:40:52;;;;;;;23.48;18.02;;;;;;;;;;5007442;28;20060;-78
2023/09/12 12:43:22;;;;;;;24.95;19.35;;;;;;;;;;5008372;28;20093;-78
2023/09/12 12:45:55;;;;;;;25.00;18.75;;;;;;;;;;4991984;28;20474;-79
2023/09/12 12:48:32;;;;;;;28.15;20.33;;;;;;;;;;5010213;28;20125;-79
2023/09/12 12:50:58;;;;;;;30.48;20.38;;;;;;;;;;5027906;28;20059;-78
2023/09/12 12:53:43;;;;;;;27.95;18.67;;;;;;;;;;5008503;28;20049;-78
2023/09/12 12:56:11;;;;;;;20.80;14.90;;;;;;;;;;5015548;28;20057;-79
2023/09/12 12:58:37;;;;;;;25.42;14.23;;;;;;;;;;5009261;28;20069;-78
2023/09/12 13:01:03;;;;;;;14.38;11.18;;;;;;;;;;5015899;28;20045;-77
2023/09/12 13:03:31;;;;;;;14.55;10.35;;;;;;;;;;5028147;28;20041;-77
2023/09/12 13:05:57;;;;;;;15.55;10.40;;;;;;;;;;5025865;28;20125;-77
2023/09/12 13:08:23;;;;;;;17.25;10.25;;;;;;;;;;5026819;28;20054;-78
2023/09/12 13:10:49;;;;;;;14.02;9.75;;;;;;;;;;5027678;28;20085;-77
2023/09/12 13:13:15;;;;;;;15.90;11.00;;;;;;;;;;5027886;28;20444;-78
2023/09/12 13:15:41;;;;;;;13.57;10.40;;;;;;;;;;5019366;28;20406;-78
2023/09/12 13:18:07;;;;;;;16.08;10.52;;;;;;;;;;5007419;28;20509;-79
2023/09/12 13:20:33;;;;;;;14.98;10.50;;;;;;;;;;4989081;28;20128;-75
2023/09/12 13:22:59;;;;;;;21.13;11.02;;;;;;;;;;5005685;28;20137;-75
2023/09/12 13:25:28;;;;;;;21.17;11.45;;;;;;;;;;4997234;28;20076;-74
2023/09/12 13:27:54;;;;;;;17.77;10.90;;;;;;;;;;5007890;28;20057;-74
2023/09/12 13:30:20;;;;;;;16.48;11.13;;;;;;;;;;5006868;28;20358;-75
2023/09/12 13:32:46;;;;;;;14.50;10.43;;;;;;;;;;5007432;28;20145;-75
2023/09/12 13:35:12;;;;;;;14.23;9.40;;;;;;;;;;4990164;28;20049;-74
2023/09/12 13:37:38;;;;;;;13.40;9.68;;;;;;;;;;5005575;28;20098;-74
2023/09/12 13:40:06;;;;;;;14.43;7.88;;;;;;;;;;5006386;28;20398;-80
2023/09/12 13:42:32;;;;;;;12.40;8.75;;;;;;;;;;4989694;28;20121;-80
2023/09/12 13:44:58;;;;;;;11.25;7.63;;;;;;;;;;5015200;28;20049;-79
2023/09/12 13:47:25;;;;;;;11.95;7.20;;;;;;;;;;5007154;28;20503;-79
2023/09/12 13:49:52;;;;;;;10.20;6.97;;;;;;;;;;5005749;28;20421;-80
2023/09/12 13:52:20;;;;;;;12.30;8.13;;;;;;;;;;5005641;28;20053;-80
2023/09/12 13:54:46;;;;;;;13.57;8.73;;;;;;;;;;4989431;28;20077;-79
2023/09/12 13:57:12;;;;;;;12.30;7.97;;;;;;;;;;5027628;28;20050;-80
2023/09/12 13:59:38;;;;;;;10.15;6.25;;;;;;;;;;5028072;28;20045;-79
2023/09/12 14:02:04;;;;;;;11.93;7.35;;;;;;;;;;5027874;28;20406;-80
2023/09/12 14:04:30;;;;;;;10.48;7.72;;;;;;;;;;5024436;28;20129;-80
2023/09/12 14:06:56;;;;;;;10.13;7.45;;;;;;;;;;5026835;28;20123;-81
2023/09/12 14:09:22;;;;;;;11.18;7.72;;;;;;;;;;5027057;28;20434;-80
2023/09/12 14:11:48;;;;;;;8.90;6.00;;;;;;;;;;5026093;28;20140;-80
2023/09/12 14:14:14;;;;;;;9.20;5.57;;;;;;;;;;5009760;28;20081;-79
2023/09/12 14:16:40;;;;;;;11.00;6.90;;;;;;;;;;5010621;28;20045;-79
2023/09/12 14:19:06;;;;;;;10.20;5.82;;;;;;;;;;5010055;28;20041;-79